UKV2653 KBFI-KSFO
Flight info
| Callsign | UKV2653 |
|---|---|
| Flight time | 1h 38m |
| Altitude | 35000 |
| Route | JJAMM ELMAA ERAVE Q1 ETCHY MLBEC BDEGA4 |
| Aircraft | B38M/M-SDE1FGHILORVWXY/HB1 |
Departure
| Time | 2026-04-25 13:28 |
|---|---|
| Airport | King County International Airport - Boeing Field (KBFI) |
Arrival
| Time | 2026-04-25 15:06 |
|---|---|
| Airport | San Francisco International Airport (KSFO) |
| Time | Latitude | Longitude | Altitude | Speed | Heading |
|---|---|---|---|---|---|
| 2026-04-25 12:56 | 47.53477 | -122.30246 | 26 ft | 0 kts | 51° |
| 2026-04-25 13:17 | 47.53466 | -122.30272 | 26 ft | 4 kts | 61° |
| 2026-04-25 13:18 | 47.53453 | -122.30300 | 28 ft | 4 kts | 32° |
| 2026-04-25 13:18 | 47.53430 | -122.30305 | 26 ft | 4 kts | 342° |
| 2026-04-25 13:18 | 47.53416 | -122.30296 | 27 ft | 1 kts | 331° |
| 2026-04-25 13:18 | 47.53414 | -122.30295 | 27 ft | 0 kts | 331° |
| 2026-04-25 13:21 | 47.53416 | -122.30296 | 27 ft | 1 kts | 330° |
| 2026-04-25 13:22 | 47.53436 | -122.30313 | 27 ft | 5 kts | 330° |
| 2026-04-25 13:22 | 47.53475 | -122.30345 | 28 ft | 7 kts | 330° |
| 2026-04-25 13:22 | 47.53522 | -122.30384 | 27 ft | 9 kts | 330° |
| 2026-04-25 13:23 | 47.53650 | -122.30521 | 25 ft | 14 kts | 325° |
| 2026-04-25 13:23 | 47.53730 | -122.30593 | 28 ft | 13 kts | 330° |
| 2026-04-25 13:23 | 47.53815 | -122.30665 | 28 ft | 15 kts | 330° |
| 2026-04-25 13:23 | 47.53913 | -122.30747 | 29 ft | 17 kts | 330° |
| 2026-04-25 13:24 | 47.54017 | -122.30837 | 28 ft | 19 kts | 327° |
| 2026-04-25 13:24 | 47.54077 | -122.30903 | 27 ft | 10 kts | 320° |
| 2026-04-25 13:24 | 47.54103 | -122.30969 | 27 ft | 7 kts | 264° |
| 2026-04-25 13:24 | 47.54093 | -122.31007 | 28 ft | 0 kts | 243° |
| 2026-04-25 13:26 | 47.54083 | -122.31034 | 28 ft | 7 kts | 241° |
| 2026-04-25 13:26 | 47.54058 | -122.31098 | 29 ft | 6 kts | 238° |
| 2026-04-25 13:26 | 47.54019 | -122.31103 | 29 ft | 7 kts | 153° |
| 2026-04-25 13:27 | 47.54016 | -122.31100 | 29 ft | 0 kts | 152° |
| 2026-04-25 13:27 | 47.53834 | -122.30949 | 29 ft | 71 kts | 149° |
| 2026-04-25 13:27 | 47.53168 | -122.30380 | 27 ft | 146 kts | 150° |
| 2026-04-25 13:27 | 47.52131 | -122.29507 | 230 ft | 192 kts | 150° |
| 2026-04-25 13:28 | 47.50881 | -122.28459 | 927 ft | 218 kts | 150° |
| 2026-04-25 13:28 | 47.50426 | -122.28079 | 1210 ft | 226 kts | 150° |
| 2026-04-25 13:28 | 47.48069 | -122.26128 | 2884 ft | 246 kts | 150° |
| 2026-04-25 13:28 | 47.46499 | -122.24892 | 3716 ft | 265 kts | 156° |
| 2026-04-25 13:29 | 47.44675 | -122.24458 | 4787 ft | 270 kts | 185° |
| 2026-04-25 13:29 | 47.42874 | -122.25310 | 5806 ft | 278 kts | 212° |
| 2026-04-25 13:29 | 47.41510 | -122.27295 | 6889 ft | 278 kts | 240° |
| 2026-04-25 13:30 | 47.40594 | -122.32823 | 8889 ft | 283 kts | 265° |
| 2026-04-25 13:30 | 47.40350 | -122.35727 | 9899 ft | 287 kts | 265° |
| 2026-04-25 13:30 | 47.40096 | -122.38694 | 10637 ft | 299 kts | 265° |
| 2026-04-25 13:31 | 47.39532 | -122.45194 | 11618 ft | 337 kts | 265° |
| 2026-04-25 13:31 | 47.39209 | -122.48671 | 12282 ft | 347 kts | 265° |
| 2026-04-25 13:31 | 47.38875 | -122.52201 | 13211 ft | 349 kts | 264° |
| 2026-04-25 13:31 | 47.38234 | -122.55692 | 14005 ft | 357 kts | 249° |
| 2026-04-25 13:32 | 47.37073 | -122.58968 | 14765 ft | 363 kts | 243° |
| 2026-04-25 13:32 | 47.35750 | -122.62170 | 15490 ft | 368 kts | 240° |
| 2026-04-25 13:32 | 47.34375 | -122.65369 | 16202 ft | 370 kts | 246° |
| 2026-04-25 13:32 | 47.33491 | -122.68911 | 16902 ft | 369 kts | 255° |
| 2026-04-25 13:33 | 47.32631 | -122.72514 | 17554 ft | 375 kts | 253° |
| 2026-04-25 13:33 | 47.31737 | -122.76088 | 18241 ft | 378 kts | 253° |
| 2026-04-25 13:33 | 47.30798 | -122.79780 | 18840 ft | 382 kts | 253° |
| 2026-04-25 13:33 | 47.30173 | -122.82215 | 19198 ft | 385 kts | 253° |
| 2026-04-25 13:34 | 47.28909 | -122.87110 | 19991 ft | 388 kts | 253° |
| 2026-04-25 13:34 | 47.27940 | -122.90848 | 20528 ft | 393 kts | 253° |
| 2026-04-25 13:34 | 47.26962 | -122.94619 | 21074 ft | 396 kts | 253° |
| 2026-04-25 13:34 | 47.25971 | -122.98430 | 21614 ft | 400 kts | 253° |
| 2026-04-25 13:35 | 47.24970 | -123.02276 | 22137 ft | 404 kts | 253° |
| 2026-04-25 13:35 | 47.23958 | -123.06156 | 22661 ft | 408 kts | 253° |
| 2026-04-25 13:35 | 47.22933 | -123.10079 | 23183 ft | 412 kts | 253° |
| 2026-04-25 13:35 | 47.21899 | -123.14029 | 23666 ft | 416 kts | 253° |
| 2026-04-25 13:36 | 47.20853 | -123.18017 | 24096 ft | 419 kts | 253° |
| 2026-04-25 13:36 | 47.19800 | -123.22031 | 24527 ft | 421 kts | 254° |
| 2026-04-25 13:36 | 47.18740 | -123.26060 | 24968 ft | 424 kts | 254° |
| 2026-04-25 13:36 | 47.17668 | -123.30127 | 25384 ft | 428 kts | 253° |
| 2026-04-25 13:37 | 47.16263 | -123.34029 | 25805 ft | 439 kts | 238° |
| 2026-04-25 13:37 | 47.14100 | -123.37249 | 26259 ft | 450 kts | 219° |
| 2026-04-25 13:37 | 47.11333 | -123.39465 | 26643 ft | 458 kts | 201° |
| 2026-04-25 13:37 | 47.08210 | -123.40482 | 27036 ft | 463 kts | 184° |
| 2026-04-25 13:38 | 47.04978 | -123.40522 | 27398 ft | 467 kts | 179° |
| 2026-04-25 13:38 | 47.01718 | -123.40471 | 27750 ft | 470 kts | 179° |
| 2026-04-25 13:38 | 46.98436 | -123.40394 | 28062 ft | 473 kts | 179° |
| 2026-04-25 13:38 | 46.95122 | -123.40296 | 28280 ft | 480 kts | 179° |
| 2026-04-25 13:39 | 46.91781 | -123.40188 | 28744 ft | 480 kts | 179° |
| 2026-04-25 13:39 | 46.88434 | -123.40083 | 29138 ft | 483 kts | 179° |
| 2026-04-25 13:39 | 46.85058 | -123.39977 | 29452 ft | 486 kts | 179° |
| 2026-04-25 13:39 | 46.81672 | -123.39871 | 29806 ft | 488 kts | 179° |
| 2026-04-25 13:40 | 46.78267 | -123.39764 | 30116 ft | 491 kts | 179° |
| 2026-04-25 13:40 | 46.74837 | -123.39656 | 30415 ft | 493 kts | 179° |
| 2026-04-25 13:40 | 46.71450 | -123.39550 | 30724 ft | 494 kts | 179° |
| 2026-04-25 13:40 | 46.68011 | -123.39442 | 31080 ft | 494 kts | 179° |
| 2026-04-25 13:41 | 46.64563 | -123.39334 | 31459 ft | 494 kts | 179° |
| 2026-04-25 13:41 | 46.61104 | -123.39226 | 31676 ft | 496 kts | 180° |
| 2026-04-25 13:41 | 46.57629 | -123.39117 | 31829 ft | 502 kts | 180° |
| 2026-04-25 13:41 | 46.54137 | -123.39008 | 32098 ft | 503 kts | 180° |
| 2026-04-25 13:42 | 46.50627 | -123.38899 | 32392 ft | 505 kts | 180° |
| 2026-04-25 13:42 | 46.47120 | -123.38790 | 32726 ft | 504 kts | 180° |
| 2026-04-25 13:42 | 46.43614 | -123.38681 | 33229 ft | 501 kts | 180° |
| 2026-04-25 13:42 | 46.40141 | -123.38573 | 33746 ft | 497 kts | 180° |
| 2026-04-25 13:43 | 46.36690 | -123.38467 | 34140 ft | 495 kts | 180° |
| 2026-04-25 13:43 | 46.33246 | -123.38361 | 34461 ft | 494 kts | 180° |
| 2026-04-25 13:43 | 46.29810 | -123.38255 | 34743 ft | 494 kts | 180° |
| 2026-04-25 13:43 | 46.26374 | -123.38150 | 34983 ft | 495 kts | 180° |
| 2026-04-25 13:44 | 46.22975 | -123.38045 | 35024 ft | 495 kts | 180° |
| 2026-04-25 13:44 | 46.16124 | -123.37834 | 35008 ft | 491 kts | 180° |
| 2026-04-25 13:45 | 46.09282 | -123.37625 | 35012 ft | 492 kts | 180° |
| 2026-04-25 13:45 | 46.02438 | -123.37415 | 35002 ft | 492 kts | 180° |
| 2026-04-25 13:46 | 45.95599 | -123.37207 | 35007 ft | 492 kts | 180° |
| 2026-04-25 13:46 | 45.88756 | -123.36998 | 34982 ft | 492 kts | 181° |
| 2026-04-25 13:47 | 45.81874 | -123.36789 | 34982 ft | 497 kts | 181° |
| 2026-04-25 13:47 | 45.74961 | -123.36580 | 35008 ft | 497 kts | 181° |
| 2026-04-25 13:48 | 45.68075 | -123.36371 | 34991 ft | 494 kts | 181° |
| 2026-04-25 13:48 | 45.61192 | -123.36165 | 34989 ft | 495 kts | 181° |
| 2026-04-25 13:49 | 45.54295 | -123.35957 | 34981 ft | 495 kts | 181° |
| 2026-04-25 13:49 | 45.47454 | -123.35751 | 34969 ft | 496 kts | 181° |
| 2026-04-25 13:50 | 45.40529 | -123.35545 | 34975 ft | 498 kts | 181° |
| 2026-04-25 13:50 | 45.33606 | -123.35338 | 34973 ft | 497 kts | 181° |
| 2026-04-25 13:51 | 45.26679 | -123.35131 | 34977 ft | 496 kts | 182° |
| 2026-04-25 13:51 | 45.20939 | -123.34961 | 34968 ft | 495 kts | 182° |
| 2026-04-25 13:52 | 45.14041 | -123.34757 | 34933 ft | 496 kts | 182° |
| 2026-04-25 13:52 | 45.07119 | -123.34552 | 34963 ft | 498 kts | 182° |
| 2026-04-25 13:53 | 45.00199 | -123.34347 | 34961 ft | 496 kts | 182° |
| 2026-04-25 13:53 | 44.93301 | -123.34145 | 34959 ft | 496 kts | 182° |
| 2026-04-25 13:54 | 44.86408 | -123.33943 | 34960 ft | 496 kts | 182° |
| 2026-04-25 13:54 | 44.79515 | -123.33740 | 34923 ft | 494 kts | 182° |
| 2026-04-25 13:55 | 44.72651 | -123.33540 | 34976 ft | 494 kts | 182° |
| 2026-04-25 13:55 | 44.65827 | -123.33340 | 34964 ft | 493 kts | 182° |
| 2026-04-25 13:56 | 44.58965 | -123.33140 | 34958 ft | 492 kts | 182° |
| 2026-04-25 13:56 | 44.52127 | -123.32943 | 34962 ft | 491 kts | 182° |
| 2026-04-25 13:57 | 44.45292 | -123.32675 | 34918 ft | 491 kts | 182° |
| 2026-04-25 13:57 | 44.38453 | -123.32405 | 34972 ft | 491 kts | 182° |
| 2026-04-25 13:58 | 44.31634 | -123.32135 | 34964 ft | 489 kts | 182° |
| 2026-04-25 13:58 | 44.24832 | -123.31868 | 34952 ft | 489 kts | 182° |
| 2026-04-25 13:59 | 44.18069 | -123.31602 | 34953 ft | 489 kts | 182° |
| 2026-04-25 13:59 | 44.11283 | -123.31330 | 34952 ft | 486 kts | 182° |
| 2026-04-25 14:00 | 44.05665 | -123.31107 | 34942 ft | 486 kts | 182° |
| 2026-04-25 14:00 | 43.97760 | -123.30795 | 34953 ft | 486 kts | 182° |
| 2026-04-25 14:01 | 43.91008 | -123.30527 | 34950 ft | 484 kts | 182° |
| 2026-04-25 14:01 | 43.84276 | -123.30261 | 34949 ft | 484 kts | 182° |
| 2026-04-25 14:02 | 43.77589 | -123.29998 | 34953 ft | 484 kts | 182° |
| 2026-04-25 14:02 | 43.70862 | -123.29735 | 34955 ft | 484 kts | 182° |
| 2026-04-25 14:03 | 43.64124 | -123.29471 | 34950 ft | 484 kts | 182° |
| 2026-04-25 14:03 | 43.57396 | -123.29208 | 34949 ft | 484 kts | 182° |
| 2026-04-25 14:04 | 43.50661 | -123.28944 | 34952 ft | 483 kts | 182° |
| 2026-04-25 14:04 | 43.43946 | -123.28683 | 34947 ft | 481 kts | 182° |
| 2026-04-25 14:05 | 43.37280 | -123.28423 | 34938 ft | 481 kts | 182° |
| 2026-04-25 14:05 | 43.30583 | -123.28164 | 34938 ft | 481 kts | 182° |
| 2026-04-25 14:06 | 43.23896 | -123.27905 | 34942 ft | 479 kts | 182° |
| 2026-04-25 14:06 | 43.17265 | -123.27650 | 34946 ft | 479 kts | 182° |
| 2026-04-25 14:07 | 43.10593 | -123.27393 | 34947 ft | 479 kts | 182° |
| 2026-04-25 14:07 | 43.03944 | -123.27137 | 34917 ft | 476 kts | 182° |
| 2026-04-25 14:08 | 42.97312 | -123.26883 | 34922 ft | 477 kts | 182° |
| 2026-04-25 14:08 | 42.90683 | -123.26629 | 34912 ft | 477 kts | 182° |
| 2026-04-25 14:09 | 42.84057 | -123.26376 | 34896 ft | 475 kts | 182° |
| 2026-04-25 14:09 | 42.77453 | -123.26125 | 34881 ft | 475 kts | 182° |
| 2026-04-25 14:10 | 42.70851 | -123.25874 | 34889 ft | 475 kts | 182° |
| 2026-04-25 14:10 | 42.64256 | -123.25623 | 34865 ft | 473 kts | 182° |
| 2026-04-25 14:11 | 42.57675 | -123.25374 | 34873 ft | 473 kts | 182° |
| 2026-04-25 14:11 | 42.51097 | -123.25125 | 34884 ft | 473 kts | 182° |
| 2026-04-25 14:12 | 42.44563 | -123.24883 | 34899 ft | 471 kts | 183° |
| 2026-04-25 14:12 | 42.38013 | -123.24640 | 34885 ft | 470 kts | 182° |
| 2026-04-25 14:13 | 42.31470 | -123.24399 | 34906 ft | 470 kts | 182° |
| 2026-04-25 14:13 | 42.24937 | -123.24157 | 34924 ft | 468 kts | 182° |
| 2026-04-25 14:14 | 42.18448 | -123.23919 | 34912 ft | 465 kts | 182° |
| 2026-04-25 14:14 | 42.11970 | -123.23683 | 34917 ft | 466 kts | 182° |
| 2026-04-25 14:15 | 42.05487 | -123.23443 | 34900 ft | 464 kts | 182° |
| 2026-04-25 14:15 | 41.99116 | -123.23212 | 34903 ft | 460 kts | 182° |
| 2026-04-25 14:16 | 41.92716 | -123.22980 | 34916 ft | 460 kts | 182° |
| 2026-04-25 14:16 | 41.86316 | -123.22745 | 34914 ft | 460 kts | 182° |
| 2026-04-25 14:17 | 41.79940 | -123.22513 | 34906 ft | 457 kts | 182° |
| 2026-04-25 14:17 | 41.73565 | -123.22281 | 34917 ft | 457 kts | 182° |
| 2026-04-25 14:18 | 41.67205 | -123.22054 | 34896 ft | 456 kts | 182° |
| 2026-04-25 14:18 | 41.60882 | -123.21827 | 34914 ft | 457 kts | 182° |
| 2026-04-25 14:19 | 41.54514 | -123.21606 | 34910 ft | 457 kts | 182° |
| 2026-04-25 14:19 | 41.48151 | -123.21386 | 34929 ft | 457 kts | 182° |
| 2026-04-25 14:20 | 41.41810 | -123.21164 | 34907 ft | 453 kts | 182° |
| 2026-04-25 14:20 | 41.35507 | -123.20949 | 34913 ft | 453 kts | 182° |
| 2026-04-25 14:21 | 41.29205 | -123.20786 | 34941 ft | 453 kts | 182° |
| 2026-04-25 14:21 | 41.22908 | -123.20626 | 34916 ft | 451 kts | 182° |
| 2026-04-25 14:22 | 41.16632 | -123.20466 | 34915 ft | 451 kts | 182° |
| 2026-04-25 14:22 | 41.10391 | -123.20308 | 34933 ft | 450 kts | 182° |
| 2026-04-25 14:23 | 41.04114 | -123.20149 | 34934 ft | 450 kts | 182° |
| 2026-04-25 14:23 | 40.97855 | -123.19990 | 34901 ft | 449 kts | 182° |
| 2026-04-25 14:24 | 40.91596 | -123.19831 | 34915 ft | 450 kts | 182° |
| 2026-04-25 14:24 | 40.85369 | -123.19674 | 34914 ft | 449 kts | 182° |
| 2026-04-25 14:25 | 40.81200 | -123.19568 | 34913 ft | 447 kts | 182° |
| 2026-04-25 14:25 | 40.72906 | -123.19362 | 34910 ft | 448 kts | 182° |
| 2026-04-25 14:26 | 40.66664 | -123.19204 | 34911 ft | 448 kts | 183° |
| 2026-04-25 14:26 | 40.60436 | -123.19049 | 34917 ft | 447 kts | 183° |
| 2026-04-25 14:27 | 40.54259 | -123.18895 | 34910 ft | 447 kts | 183° |
| 2026-04-25 14:27 | 40.48044 | -123.18739 | 34899 ft | 447 kts | 182° |
| 2026-04-25 14:28 | 40.41829 | -123.18585 | 34904 ft | 446 kts | 182° |
| 2026-04-25 14:28 | 40.35616 | -123.18431 | 34894 ft | 446 kts | 182° |
| 2026-04-25 14:29 | 40.29404 | -123.18277 | 34886 ft | 446 kts | 183° |
| 2026-04-25 14:29 | 40.23207 | -123.18122 | 34891 ft | 445 kts | 182° |
| 2026-04-25 14:30 | 40.17015 | -123.17964 | 34892 ft | 445 kts | 182° |
| 2026-04-25 14:30 | 40.07781 | -123.17741 | 34880 ft | 442 kts | 183° |
| 2026-04-25 14:31 | 40.01636 | -123.17592 | 34891 ft | 442 kts | 183° |
| 2026-04-25 14:31 | 39.95487 | -123.17411 | 34878 ft | 442 kts | 182° |
| 2026-04-25 14:32 | 39.89348 | -123.17112 | 34893 ft | 438 kts | 182° |
| 2026-04-25 14:32 | 39.83268 | -123.16836 | 34909 ft | 437 kts | 182° |
| 2026-04-25 14:33 | 39.77191 | -123.16557 | 34892 ft | 437 kts | 182° |
| 2026-04-25 14:33 | 39.71115 | -123.16279 | 34896 ft | 437 kts | 182° |
| 2026-04-25 14:34 | 39.65077 | -123.16003 | 34898 ft | 437 kts | 182° |
| 2026-04-25 14:34 | 39.59009 | -123.15677 | 34906 ft | 432 kts | 181° |
| 2026-04-25 14:35 | 39.52980 | -123.15437 | 34887 ft | 435 kts | 182° |
| 2026-04-25 14:35 | 39.46916 | -123.15181 | 34899 ft | 436 kts | 182° |
| 2026-04-25 14:36 | 39.40858 | -123.14906 | 34903 ft | 435 kts | 182° |
| 2026-04-25 14:36 | 39.34794 | -123.14632 | 34904 ft | 436 kts | 182° |
| 2026-04-25 14:37 | 39.28729 | -123.14358 | 34924 ft | 436 kts | 182° |
| 2026-04-25 14:37 | 39.22665 | -123.14084 | 34937 ft | 436 kts | 182° |
| 2026-04-25 14:38 | 39.16592 | -123.13811 | 34925 ft | 436 kts | 182° |
| 2026-04-25 14:38 | 39.10570 | -123.13396 | 34922 ft | 440 kts | 173° |
| 2026-04-25 14:39 | 39.07654 | -123.12123 | 34926 ft | 448 kts | 156° |
| 2026-04-25 14:39 | 39.04978 | -123.09998 | 34929 ft | 454 kts | 152° |
| 2026-04-25 14:39 | 38.99607 | -123.05714 | 34928 ft | 454 kts | 153° |
| 2026-04-25 14:40 | 38.95171 | -123.02129 | 34910 ft | 453 kts | 153° |
| 2026-04-25 14:40 | 38.92523 | -122.99982 | 34347 ft | 449 kts | 153° |
| 2026-04-25 14:40 | 38.89874 | -122.97837 | 33540 ft | 452 kts | 153° |
| 2026-04-25 14:41 | 38.87137 | -122.95887 | 32655 ft | 447 kts | 164° |
| 2026-04-25 14:41 | 38.84176 | -122.94921 | 31943 ft | 435 kts | 175° |
| 2026-04-25 14:41 | 38.81231 | -122.94128 | 31574 ft | 429 kts | 172° |
| 2026-04-25 14:41 | 38.78358 | -122.93226 | 31193 ft | 421 kts | 172° |
| 2026-04-25 14:42 | 38.75518 | -122.92361 | 30702 ft | 417 kts | 172° |
| 2026-04-25 14:42 | 38.73647 | -122.91801 | 30284 ft | 417 kts | 172° |
| 2026-04-25 14:42 | 38.69847 | -122.90673 | 29160 ft | 421 kts | 172° |
| 2026-04-25 14:42 | 38.66992 | -122.89829 | 28616 ft | 417 kts | 172° |
| 2026-04-25 14:43 | 38.64180 | -122.88999 | 28166 ft | 412 kts | 171° |
| 2026-04-25 14:43 | 38.61401 | -122.88178 | 27605 ft | 409 kts | 171° |
| 2026-04-25 14:43 | 38.58639 | -122.87364 | 27165 ft | 404 kts | 171° |
| 2026-04-25 14:43 | 38.55891 | -122.86555 | 26750 ft | 406 kts | 171° |
| 2026-04-25 14:44 | 38.53136 | -122.85743 | 26282 ft | 406 kts | 170° |
| 2026-04-25 14:44 | 38.50386 | -122.84934 | 25817 ft | 404 kts | 170° |
| 2026-04-25 14:44 | 38.47694 | -122.84142 | 25350 ft | 401 kts | 169° |
| 2026-04-25 14:44 | 38.44985 | -122.83346 | 24892 ft | 398 kts | 169° |
| 2026-04-25 14:45 | 38.42291 | -122.82556 | 24434 ft | 396 kts | 169° |
| 2026-04-25 14:45 | 38.39611 | -122.81769 | 23978 ft | 394 kts | 168° |
| 2026-04-25 14:45 | 38.36946 | -122.80988 | 23496 ft | 392 kts | 168° |
| 2026-04-25 14:45 | 38.34291 | -122.80210 | 22964 ft | 391 kts | 168° |
| 2026-04-25 14:46 | 38.31645 | -122.79436 | 22489 ft | 388 kts | 168° |
| 2026-04-25 14:46 | 38.29026 | -122.78671 | 22045 ft | 384 kts | 168° |
| 2026-04-25 14:46 | 38.26431 | -122.77913 | 21604 ft | 381 kts | 168° |
| 2026-04-25 14:46 | 38.23852 | -122.77159 | 21166 ft | 378 kts | 168° |
| 2026-04-25 14:47 | 38.21293 | -122.76414 | 20679 ft | 377 kts | 167° |
| 2026-04-25 14:47 | 38.19599 | -122.75921 | 20367 ft | 376 kts | 167° |
| 2026-04-25 14:47 | 38.16199 | -122.74932 | 19816 ft | 373 kts | 167° |
| 2026-04-25 14:47 | 38.13678 | -122.74198 | 19394 ft | 371 kts | 167° |
| 2026-04-25 14:48 | 38.11172 | -122.73471 | 18970 ft | 369 kts | 167° |
| 2026-04-25 14:48 | 38.08674 | -122.72746 | 18542 ft | 368 kts | 166° |
| 2026-04-25 14:48 | 38.06182 | -122.72025 | 18101 ft | 366 kts | 166° |
| 2026-04-25 14:48 | 38.03697 | -122.71305 | 17628 ft | 365 kts | 166° |
| 2026-04-25 14:49 | 38.01226 | -122.70589 | 17182 ft | 363 kts | 166° |
| 2026-04-25 14:49 | 37.98801 | -122.69887 | 16769 ft | 361 kts | 166° |
| 2026-04-25 14:49 | 37.96359 | -122.69181 | 16350 ft | 359 kts | 166° |
| 2026-04-25 14:49 | 37.93937 | -122.68480 | 15968 ft | 355 kts | 167° |
| 2026-04-25 14:50 | 37.91534 | -122.67777 | 15547 ft | 353 kts | 164° |
| 2026-04-25 14:50 | 37.89297 | -122.66506 | 14887 ft | 356 kts | 144° |
| 2026-04-25 14:50 | 37.87376 | -122.64525 | 14398 ft | 356 kts | 140° |
| 2026-04-25 14:50 | 37.85462 | -122.62531 | 13899 ft | 356 kts | 140° |
| 2026-04-25 14:51 | 37.83567 | -122.60541 | 13289 ft | 350 kts | 140° |
| 2026-04-25 14:51 | 37.81725 | -122.58597 | 12761 ft | 339 kts | 140° |
| 2026-04-25 14:51 | 37.79951 | -122.56721 | 12355 ft | 326 kts | 140° |
| 2026-04-25 14:51 | 37.78249 | -122.54919 | 12028 ft | 312 kts | 140° |
| 2026-04-25 14:52 | 37.76615 | -122.53189 | 11675 ft | 301 kts | 140° |
| 2026-04-25 14:52 | 37.75054 | -122.51538 | 11339 ft | 294 kts | 140° |
| 2026-04-25 14:52 | 37.73482 | -122.49875 | 11039 ft | 294 kts | 140° |
| 2026-04-25 14:52 | 37.72430 | -122.48753 | 11004 ft | 293 kts | 140° |
| 2026-04-25 14:53 | 37.70362 | -122.46553 | 10933 ft | 294 kts | 140° |
| 2026-04-25 14:53 | 37.68791 | -122.44882 | 10603 ft | 296 kts | 140° |
| 2026-04-25 14:53 | 37.67215 | -122.43207 | 10227 ft | 297 kts | 140° |
| 2026-04-25 14:53 | 37.65631 | -122.41525 | 9620 ft | 297 kts | 140° |
| 2026-04-25 14:54 | 37.64050 | -122.39847 | 8973 ft | 296 kts | 140° |
| 2026-04-25 14:54 | 37.62475 | -122.38175 | 8344 ft | 295 kts | 141° |
| 2026-04-25 14:54 | 37.60997 | -122.36395 | 7709 ft | 295 kts | 127° |
| 2026-04-25 14:54 | 37.60068 | -122.34112 | 7103 ft | 294 kts | 109° |
| 2026-04-25 14:55 | 37.59531 | -122.31632 | 6511 ft | 291 kts | 112° |
| 2026-04-25 14:55 | 37.58616 | -122.29373 | 5900 ft | 288 kts | 120° |
| 2026-04-25 14:55 | 37.57676 | -122.27136 | 5277 ft | 288 kts | 117° |
| 2026-04-25 14:55 | 37.56791 | -122.24869 | 4645 ft | 288 kts | 117° |
| 2026-04-25 14:56 | 37.55912 | -122.22602 | 3992 ft | 288 kts | 117° |
| 2026-04-25 14:56 | 37.54915 | -122.20431 | 3329 ft | 285 kts | 133° |
| 2026-04-25 14:56 | 37.53418 | -122.18876 | 3004 ft | 270 kts | 148° |
| 2026-04-25 14:56 | 37.51879 | -122.17609 | 2976 ft | 260 kts | 149° |
| 2026-04-25 14:57 | 37.50385 | -122.16380 | 2847 ft | 252 kts | 149° |
| 2026-04-25 14:57 | 37.48947 | -122.15191 | 2697 ft | 245 kts | 149° |
| 2026-04-25 14:57 | 37.47535 | -122.14022 | 2552 ft | 238 kts | 149° |
| 2026-04-25 14:57 | 37.46188 | -122.12909 | 2543 ft | 225 kts | 149° |
| 2026-04-25 14:58 | 37.45085 | -122.11603 | 2503 ft | 216 kts | 121° |
| 2026-04-25 14:58 | 37.44729 | -122.09815 | 2440 ft | 212 kts | 85° |
| 2026-04-25 14:58 | 37.45236 | -122.08123 | 2457 ft | 213 kts | 49° |
| 2026-04-25 14:58 | 37.46443 | -122.07069 | 2482 ft | 210 kts | 13° |
| 2026-04-25 14:59 | 37.47843 | -122.07084 | 2567 ft | 200 kts | 338° |
| 2026-04-25 14:59 | 37.49073 | -122.07820 | 2583 ft | 192 kts | 325° |
| 2026-04-25 14:59 | 37.50140 | -122.08804 | 2529 ft | 189 kts | 313° |
| 2026-04-25 14:59 | 37.50940 | -122.10106 | 2504 ft | 188 kts | 300° |
| 2026-04-25 15:00 | 37.51610 | -122.11531 | 2539 ft | 188 kts | 297° |
| 2026-04-25 15:00 | 37.52224 | -122.12931 | 2544 ft | 179 kts | 296° |
| 2026-04-25 15:00 | 37.52820 | -122.14280 | 2516 ft | 175 kts | 297° |
| 2026-04-25 15:00 | 37.53412 | -122.15617 | 2349 ft | 174 kts | 297° |
| 2026-04-25 15:01 | 37.53999 | -122.16947 | 2135 ft | 171 kts | 297° |
| 2026-04-25 15:01 | 37.54562 | -122.18229 | 1913 ft | 163 kts | 295° |
| 2026-04-25 15:01 | 37.55079 | -122.19456 | 1801 ft | 156 kts | 296° |
| 2026-04-25 15:01 | 37.55593 | -122.20662 | 1784 ft | 156 kts | 296° |
| 2026-04-25 15:02 | 37.56100 | -122.21874 | 1805 ft | 156 kts | 293° |
| 2026-04-25 15:02 | 37.56556 | -122.23121 | 1829 ft | 156 kts | 292° |
| 2026-04-25 15:02 | 37.57000 | -122.24366 | 1836 ft | 153 kts | 292° |
| 2026-04-25 15:02 | 37.57430 | -122.25561 | 1783 ft | 147 kts | 292° |
| 2026-04-25 15:03 | 37.57840 | -122.26719 | 1619 ft | 144 kts | 287° |
| 2026-04-25 15:03 | 37.58140 | -122.27897 | 1451 ft | 143 kts | 288° |
| 2026-04-25 15:03 | 37.58551 | -122.29041 | 1244 ft | 143 kts | 294° |
| 2026-04-25 15:03 | 37.59018 | -122.30154 | 1046 ft | 143 kts | 295° |
| 2026-04-25 15:04 | 37.59484 | -122.31271 | 855 ft | 145 kts | 295° |
| 2026-04-25 15:04 | 37.59962 | -122.32393 | 660 ft | 145 kts | 296° |
| 2026-04-25 15:04 | 37.60416 | -122.33529 | 487 ft | 145 kts | 296° |
| 2026-04-25 15:04 | 37.60905 | -122.34653 | 309 ft | 146 kts | 296° |
| 2026-04-25 15:05 | 37.61376 | -122.35788 | 87 ft | 148 kts | 297° |
| 2026-04-25 15:05 | 37.61842 | -122.36893 | 20 ft | 128 kts | 298° |
| 2026-04-25 15:05 | 37.62186 | -122.37715 | 22 ft | 84 kts | 297° |
| 2026-04-25 15:06 | 37.62482 | -122.38426 | 22 ft | 27 kts | 288° |
| 2026-04-25 15:06 | 37.62502 | -122.38635 | 22 ft | 17 kts | 269° |
| 2026-04-25 15:06 | 37.62501 | -122.38678 | 25 ft | 0 kts | 267° |
| 2026-04-25 15:08 | 37.62501 | -122.38682 | 25 ft | 2 kts | 267° |
| 2026-04-25 15:08 | 37.62499 | -122.38711 | 23 ft | 5 kts | 266° |
| 2026-04-25 15:08 | 37.62498 | -122.38747 | 21 ft | 0 kts | 266° |
| 2026-04-25 15:09 | 37.62497 | -122.38765 | 21 ft | 6 kts | 265° |
| 2026-04-25 15:09 | 37.62399 | -122.38910 | 20 ft | 15 kts | 205° |
| 2026-04-25 15:10 | 37.62317 | -122.38863 | 19 ft | 16 kts | 118° |
| 2026-04-25 15:10 | 37.62262 | -122.38730 | 19 ft | 18 kts | 117° |
| 2026-04-25 15:10 | 37.62109 | -122.38542 | 25 ft | 17 kts | 118° |
| 2026-04-25 15:11 | 37.62053 | -122.38407 | 28 ft | 18 kts | 118° |
| 2026-04-25 15:11 | 37.61995 | -122.38270 | 27 ft | 19 kts | 118° |
| 2026-04-25 15:11 | 37.61928 | -122.38112 | 24 ft | 22 kts | 118° |
| 2026-04-25 15:12 | 37.61648 | -122.37973 | 18 ft | 27 kts | 205° |
| 2026-04-25 15:12 | 37.61498 | -122.38074 | 18 ft | 16 kts | 207° |
| 2026-04-25 15:12 | 37.61391 | -122.38144 | 17 ft | 18 kts | 207° |
| 2026-04-25 15:12 | 37.61353 | -122.38170 | 18 ft | 19 kts | 207° |
| 2026-04-25 15:13 | 37.61145 | -122.38308 | 20 ft | 21 kts | 208° |
| 2026-04-25 15:13 | 37.60902 | -122.38493 | 21 ft | 14 kts | 221° |
| 2026-04-25 15:13 | 37.60909 | -122.38618 | 20 ft | 17 kts | 297° |
| 2026-04-25 15:14 | 37.60967 | -122.38758 | 19 ft | 19 kts | 298° |
| 2026-04-25 15:14 | 37.61019 | -122.38881 | 22 ft | 0 kts | 287° |
| 2026-04-25 15:14 | 37.61020 | -122.38881 | 22 ft | 0 kts | 287° |
| 2026-04-25 15:14 | 37.61378 | -122.38957 | 17 ft | 0 kts | 120° |